createdAt,value
2022-08-03T00:02:04.337Z,62.19
2022-08-03T00:04:36.379Z,61.91
2022-08-03T00:07:30.114Z,61.98
2022-08-03T00:09:59.639Z,61.82
2022-08-03T00:12:27.956Z,61.68
2022-08-03T00:14:56.111Z,61.57
2022-08-03T00:17:29.651Z,61.38
2022-08-03T00:20:22.460Z,61.63
2022-08-03T00:22:51.652Z,61.51
2022-08-03T00:25:20.068Z,61.41
2022-08-03T00:27:48.351Z,61.16
2022-08-03T00:30:16.966Z,61.25
2022-08-03T00:32:45.918Z,61.17
2022-08-03T00:35:27.433Z,60.95
2022-08-03T00:38:02.447Z,61.00
2022-08-03T00:40:31.852Z,60.92
2022-08-03T00:43:05.604Z,60.77
2022-08-03T00:45:40.509Z,60.65
2022-08-03T00:48:19.771Z,60.45
2022-08-03T00:50:59.209Z,60.38
2022-08-03T00:53:27.984Z,60.22
2022-08-03T00:55:56.542Z,60.23
2022-08-03T00:58:24.815Z,60.02
2022-08-03T01:00:53.166Z,60.05
2022-08-03T01:03:21.608Z,59.60
2022-08-03T01:06:19.475Z,59.47
2022-08-03T01:08:57.019Z,59.40
2022-08-03T01:12:09.254Z,59.31
2022-08-03T01:14:42.385Z,59.23
2022-08-03T01:17:39.357Z,59.07
2022-08-03T01:20:10.710Z,59.08
2022-08-03T01:23:16.480Z,58.90
2022-08-03T01:25:47.375Z,59.01
2022-08-03T01:28:25.265Z,59.13
2022-08-03T01:30:59.175Z,59.05
2022-08-03T01:33:36.243Z,59.19
2022-08-03T01:36:34.111Z,59.14
2022-08-03T01:39:09.507Z,59.12
2022-08-03T01:42:06.401Z,59.15
2022-08-03T01:44:39.092Z,59.56
2022-08-03T01:47:32.998Z,59.57
2022-08-03T01:50:02.505Z,59.99
2022-08-03T01:52:57.175Z,60.06
2022-08-03T01:55:29.763Z,60.14
2022-08-03T01:58:05.656Z,60.39
2022-08-03T02:00:39.985Z,60.57
2022-08-03T02:03:10.761Z,60.70
2022-08-03T02:07:02.059Z,61.11
2022-08-03T02:08:55.590Z,61.22
2022-08-03T02:11:26.651Z,61.47
2022-08-03T02:13:58.555Z,61.67
2022-08-03T02:16:53.114Z,61.69
2022-08-03T02:19:31.348Z,61.95
2022-08-03T02:22:02.485Z,62.27
2022-08-03T02:24:32.074Z,62.54
2022-08-03T02:27:26.727Z,62.64
2022-08-03T02:30:14.495Z,62.72
2022-08-03T02:32:48.123Z,63.29
2022-08-03T02:35:19.497Z,63.53
2022-08-03T02:37:51.990Z,63.46
2022-08-03T02:40:23.120Z,63.51
2022-08-03T02:42:55.827Z,63.88
2022-08-03T02:45:26.624Z,63.97
2022-08-03T02:48:00.307Z,64.17
2022-08-03T02:50:53.810Z,64.39
2022-08-03T02:53:24.054Z,64.66
2022-08-03T02:56:18.418Z,64.70
2022-08-03T02:59:10.886Z,64.77
2022-08-03T03:02:04.731Z,65.12
2022-08-03T03:04:34.114Z,65.30
2022-08-03T03:07:28.774Z,65.31
2022-08-03T03:09:57.895Z,65.31
2022-08-03T03:12:52.894Z,65.59
2022-08-03T03:15:21.839Z,65.58
2022-08-03T03:17:51.981Z,65.59
2022-08-03T03:20:46.104Z,65.63
2022-08-03T03:23:15.455Z,65.80
2022-08-03T03:25:43.910Z,66.15
2022-08-03T03:28:12.437Z,65.93
2022-08-03T03:30:40.830Z,65.93
2022-08-03T03:33:09.117Z,66.17
2022-08-03T03:36:02.629Z,65.99
2022-08-03T03:38:32.173Z,66.22
2022-08-03T03:41:00.826Z,66.19
2022-08-03T03:43:29.687Z,66.25
2022-08-03T03:46:00.897Z,66.43
2022-08-03T03:48:54.556Z,66.27
2022-08-03T03:51:22.935Z,66.27
2022-08-03T03:54:01.088Z,66.37
2022-08-03T03:56:29.797Z,66.23
2022-08-03T03:58:58.028Z,66.44
2022-08-03T04:01:58.787Z,66.39
2022-08-03T04:04:46.037Z,66.62
2022-08-03T04:07:33.090Z,66.89
2022-08-03T04:10:21.682Z,67.00
2022-08-03T04:12:52.334Z,67.01
2022-08-03T04:15:23.301Z,66.99
2022-08-03T04:18:18.113Z,66.95
2022-08-03T04:20:49.042Z,66.85
2022-08-03T04:23:21.406Z,67.13
2022-08-03T04:25:53.563Z,66.91
2022-08-03T04:28:30.593Z,67.07
2022-08-03T04:31:01.544Z,67.05
2022-08-03T04:33:32.612Z,66.94
2022-08-03T04:36:04.521Z,66.81
2022-08-03T04:38:39.115Z,66.81
2022-08-03T04:41:32.398Z,66.79
2022-08-03T04:44:23.506Z,66.29
2022-08-03T04:46:58.957Z,66.50
2022-08-03T04:49:28.365Z,66.62
2022-08-03T04:52:01.696Z,66.29
2022-08-03T04:54:29.850Z,66.51
2022-08-03T04:57:23.645Z,66.38
2022-08-03T05:00:02.714Z,66.30
2022-08-03T05:02:32.395Z,66.27
2022-08-03T05:05:00.790Z,65.89
2022-08-03T05:07:54.573Z,66.05
2022-08-03T05:10:48.729Z,65.78
2022-08-03T05:13:16.966Z,65.61
2022-08-03T05:15:45.168Z,65.81
2022-08-03T05:18:17.848Z,65.53
2022-08-03T05:20:46.119Z,65.28
2022-08-03T05:23:14.614Z,64.98
2022-08-03T05:25:49.789Z,64.49
2022-08-03T05:28:18.535Z,64.45
2022-08-03T05:30:46.722Z,64.31
2022-08-03T05:33:15.295Z,63.97
2022-08-03T05:36:00.631Z,63.98
2022-08-03T05:38:59.593Z,63.65
2022-08-03T05:41:37.317Z,63.61
2022-08-03T05:44:06.080Z,63.51
2022-08-03T05:46:34.329Z,63.20
2022-08-03T05:49:02.642Z,63.30
2022-08-03T05:51:30.977Z,63.34
2022-08-03T05:53:59.188Z,63.24
2022-08-03T05:56:29.568Z,62.61
2022-08-03T05:59:38.239Z,62.62
2022-08-03T06:02:06.935Z,62.44
2022-08-03T06:04:35.107Z,62.74
2022-08-03T06:07:28.512Z,62.72
2022-08-03T06:10:37.580Z,62.45
2022-08-03T06:13:10.476Z,62.50
2022-08-03T06:15:42.819Z,62.31
2022-08-03T06:18:11.216Z,61.82
2022-08-03T06:20:39.456Z,61.85
2022-08-03T06:23:08.183Z,61.97
2022-08-03T06:26:09.519Z,62.27
2022-08-03T06:28:52.953Z,62.18
2022-08-03T06:31:32.902Z,62.25
2022-08-03T06:34:32.838Z,62.13
2022-08-03T06:36:52.963Z,62.18
2022-08-03T06:39:23.586Z,62.32
2022-08-03T06:42:17.933Z,62.06
2022-08-03T06:44:50.021Z,62.05
2022-08-03T06:47:20.337Z,61.95
2022-08-03T06:50:17.048Z,61.59
2022-08-03T06:52:46.729Z,61.71
2022-08-03T06:55:20.813Z,61.58
2022-08-03T06:57:52.864Z,61.18
2022-08-03T07:00:21.428Z,61.26
2022-08-03T07:02:51.798Z,61.05
2022-08-03T07:05:23.276Z,60.76
2022-08-03T07:08:16.482Z,60.93
2022-08-03T07:10:45.789Z,60.80
2022-08-03T07:13:14.008Z,60.55
2022-08-03T07:15:55.328Z,60.62
2022-08-03T07:18:29.118Z,60.45
2022-08-03T07:20:58.931Z,59.98
2022-08-03T07:23:27.241Z,59.98
2022-08-03T07:25:55.540Z,59.24
2022-08-03T07:28:23.804Z,59.03
2022-08-03T07:30:52.118Z,59.03
2022-08-03T07:33:20.305Z,58.22
2022-08-03T07:35:48.650Z,58.71
2022-08-03T07:38:16.918Z,58.74
2022-08-03T07:40:46.466Z,58.53
2022-08-03T07:43:14.868Z,57.49
2022-08-03T07:45:43.057Z,57.76
2022-08-03T07:48:12.572Z,57.68
2022-08-03T07:50:41.046Z,57.96
2022-08-03T07:53:09.246Z,58.11
2022-08-03T07:55:37.473Z,58.00
2022-08-03T07:58:12.611Z,57.70
2022-08-03T08:00:41.121Z,57.21
2022-08-03T08:03:09.348Z,57.92
2022-08-03T08:05:37.901Z,57.61
2022-08-03T08:08:06.108Z,56.38
2022-08-03T08:10:35.278Z,55.57
2022-08-03T08:13:05.047Z,55.54
2022-08-03T08:15:33.283Z,55.55
2022-08-03T08:18:02.590Z,54.98
2022-08-03T08:20:36.538Z,54.74
2022-08-03T08:23:37.833Z,54.02
2022-08-03T08:25:57.061Z,54.08
2022-08-03T08:28:32.599Z,53.75
2022-08-03T08:31:02.575Z,53.63
2022-08-03T08:34:02.793Z,52.85
2022-08-03T08:36:19.497Z,52.78
2022-08-03T08:38:47.977Z,53.16
2022-08-03T08:41:16.829Z,52.51
2022-08-03T08:43:45.140Z,52.46
2022-08-03T08:46:22.729Z,52.23
2022-08-03T08:48:54.675Z,51.98
2022-08-03T08:51:43.839Z,52.08
2022-08-03T08:54:22.232Z,51.37
2022-08-03T08:56:52.744Z,50.93
2022-08-03T08:59:21.997Z,50.21
2022-08-03T09:01:50.272Z,50.30
2022-08-03T09:04:19.065Z,49.60
2022-08-03T09:07:10.562Z,49.59
2022-08-03T09:10:11.333Z,48.75
2022-08-03T09:12:42.237Z,48.54
2022-08-03T09:15:22.911Z,48.12
2022-08-03T09:17:53.085Z,47.53
2022-08-03T09:20:23.361Z,46.61
2022-08-03T09:22:53.713Z,46.21
2022-08-03T09:25:37.649Z,45.65
2022-08-03T09:28:14.090Z,43.87
2022-08-03T09:31:02.430Z,43.54
2022-08-03T09:33:35.954Z,42.86
2022-08-03T09:36:04.723Z,42.10
2022-08-03T09:38:33.023Z,41.92
2022-08-03T09:41:01.263Z,41.04
2022-08-03T09:43:46.535Z,40.46
2022-08-03T09:46:14.745Z,39.80
2022-08-03T09:48:42.929Z,38.86
2022-08-03T09:52:30.226Z,38.01
2022-08-03T09:54:05.555Z,37.46
2022-08-03T09:56:47.488Z,37.02
2022-08-03T09:59:25.173Z,36.48
2022-08-03T10:01:55.466Z,35.63
2022-08-03T10:04:24.537Z,34.74
2022-08-03T10:07:07.270Z,33.64
2022-08-03T10:09:38.598Z,33.50
2022-08-03T10:12:14.145Z,33.12
2022-08-03T10:14:45.973Z,33.33
2022-08-03T10:17:14.457Z,32.79
2022-08-03T10:19:42.643Z,32.80
2022-08-03T10:22:14.310Z,33.45
2022-08-03T10:24:52.763Z,33.60
2022-08-03T10:27:24.163Z,33.52
2022-08-03T10:29:55.229Z,31.89
2022-08-03T10:32:30.576Z,31.27
2022-08-03T10:35:19.588Z,30.07
2022-08-03T10:38:00.499Z,30.57
2022-08-03T10:40:49.630Z,29.70
2022-08-03T10:43:28.692Z,29.99
2022-08-03T10:45:57.238Z,29.80
2022-08-03T10:48:26.382Z,29.23
2022-08-03T10:50:55.021Z,29.53
2022-08-03T10:53:40.670Z,29.02
2022-08-03T10:56:52.573Z,28.84
2022-08-03T10:59:50.821Z,28.59
2022-08-03T11:02:19.161Z,28.39
2022-08-03T11:04:47.362Z,28.07
2022-08-03T11:07:23.737Z,27.25
2022-08-03T11:09:54.494Z,27.11
2022-08-03T11:12:32.961Z,26.66
2022-08-03T11:15:04.858Z,27.83
2022-08-03T11:17:46.472Z,28.13
2022-08-03T11:20:46.148Z,27.28
2022-08-03T11:23:15.847Z,26.32
2022-08-03T11:26:10.263Z,26.49
2022-08-03T11:28:40.116Z,26.24
2022-08-03T11:31:48.127Z,26.78
2022-08-03T11:34:14.841Z,27.45
2022-08-03T11:37:24.617Z,27.80
2022-08-03T11:39:55.531Z,27.32
2022-08-03T11:42:24.069Z,27.33
2022-08-03T11:44:54.821Z,26.49
2022-08-03T11:47:25.783Z,26.17
2022-08-03T11:49:57.705Z,26.23
2022-08-03T11:52:27.598Z,26.55
2022-08-03T11:54:57.524Z,26.35
2022-08-03T11:59:10.935Z,26.74
2022-08-03T12:00:22.874Z,26.95
2022-08-03T12:03:13.884Z,27.23
2022-08-03T12:05:52.905Z,26.88
2022-08-03T12:08:27.004Z,26.92
2022-08-03T12:10:57.589Z,25.97
2022-08-03T12:14:43.823Z,26.74
2022-08-03T12:16:23.486Z,27.30
2022-08-03T12:19:05.295Z,26.99
2022-08-03T12:21:33.681Z,26.99
2022-08-03T12:24:04.534Z,27.28
2022-08-03T12:26:58.409Z,26.66
2022-08-03T12:29:27.792Z,26.00
2022-08-03T12:31:56.449Z,25.12
2022-08-03T12:34:24.928Z,26.03
2022-08-03T12:36:59.750Z,25.45
2022-08-03T12:39:31.397Z,24.69
2022-08-03T12:41:59.783Z,24.79
2022-08-03T12:44:33.004Z,24.69
2022-08-03T12:47:02.669Z,24.22
2022-08-03T12:49:54.182Z,23.93
2022-08-03T12:52:23.698Z,24.18
2022-08-03T12:54:57.257Z,24.57
2022-08-03T12:57:25.688Z,24.55
2022-08-03T13:00:28.995Z,24.48
2022-08-03T13:05:57.604Z,24.21
2022-08-03T13:09:01.555Z,24.63
2022-08-03T13:11:58.061Z,24.31
2022-08-03T13:14:20.170Z,23.89
2022-08-03T13:16:49.509Z,23.45
2022-08-03T13:19:17.961Z,23.54
2022-08-03T13:22:01.953Z,23.33
2022-08-03T13:24:33.725Z,22.87
2022-08-03T13:28:04.863Z,22.31
2022-08-03T13:29:53.078Z,22.50
2022-08-03T13:32:21.617Z,22.62
2022-08-03T13:34:49.916Z,23.22
2022-08-03T13:37:18.160Z,22.77
2022-08-03T13:39:59.801Z,22.90
2022-08-03T13:42:30.811Z,22.99
2022-08-03T13:44:59.955Z,22.32
2022-08-03T13:47:28.636Z,22.44
2022-08-03T13:50:01.629Z,22.35
2022-08-03T13:52:34.990Z,21.67
2022-08-03T13:55:06.272Z,21.84
2022-08-03T13:58:06.630Z,22.08
2022-08-03T14:00:28.480Z,22.01
2022-08-03T14:03:17.425Z,22.43
2022-08-03T14:05:45.651Z,22.46
2022-08-03T14:08:13.975Z,22.34
2022-08-03T14:10:44.730Z,22.43
2022-08-03T14:13:17.758Z,22.04
2022-08-03T14:15:49.617Z,22.00
2022-08-03T14:18:27.961Z,22.15
2022-08-03T14:21:01.974Z,21.89
2022-08-03T14:23:35.310Z,22.06
2022-08-03T14:26:04.949Z,22.06
2022-08-03T14:28:33.317Z,22.47
2022-08-03T14:31:02.181Z,22.28
2022-08-03T14:33:30.405Z,21.92
2022-08-03T14:35:58.826Z,22.26
2022-08-03T14:38:27.221Z,22.35
2022-08-03T14:40:55.556Z,22.44
2022-08-03T14:43:24.237Z,22.39
2022-08-03T14:45:53.764Z,22.57
2022-08-03T14:50:34.885Z,21.99
2022-08-03T14:51:12.628Z,22.19
2022-08-03T14:53:41.807Z,21.93
2022-08-03T14:56:10.972Z,22.31
2022-08-03T14:58:39.394Z,22.80
2022-08-03T15:02:02.255Z,22.75
2022-08-03T15:03:56.445Z,22.77
2022-08-03T15:06:24.806Z,23.05
2022-08-03T15:09:14.004Z,22.74
2022-08-03T15:11:41.715Z,23.25
2022-08-03T15:14:10.014Z,23.21
2022-08-03T15:16:41.783Z,23.00
2022-08-03T15:20:03.516Z,23.00
2022-08-03T15:21:58.349Z,23.48
2022-08-03T15:24:29.588Z,23.53
2022-08-03T15:26:57.864Z,23.22
2022-08-03T15:30:06.739Z,23.51
2022-08-03T15:32:14.914Z,23.49
2022-08-03T15:34:50.418Z,23.43
2022-08-03T15:37:20.927Z,23.33
2022-08-03T15:39:58.334Z,22.88
2022-08-03T15:42:29.796Z,23.41
2022-08-03T15:44:58.240Z,23.58
2022-08-03T15:47:27.079Z,23.56
2022-08-03T15:49:55.279Z,24.05
2022-08-03T15:52:23.517Z,24.50
2022-08-03T15:54:51.931Z,24.49
2022-08-03T15:57:20.905Z,24.60
2022-08-03T15:59:49.306Z,24.52
2022-08-03T16:02:17.835Z,23.82
2022-08-03T16:04:46.062Z,23.93
2022-08-03T16:07:16.020Z,23.92
2022-08-03T16:09:44.465Z,24.02
2022-08-03T16:12:15.549Z,24.23
2022-08-03T16:14:52.945Z,24.21
2022-08-03T16:17:22.470Z,24.50
2022-08-03T16:19:54.737Z,24.27
2022-08-03T16:22:24.767Z,24.52
2022-08-03T16:24:56.115Z,24.58
2022-08-03T16:27:37.379Z,25.07
2022-08-03T16:30:16.771Z,25.38
2022-08-03T16:32:45.690Z,25.65
2022-08-03T16:35:19.844Z,25.99
2022-08-03T16:37:56.278Z,26.46
2022-08-03T16:40:26.129Z,26.95
2022-08-03T16:42:54.529Z,27.45
2022-08-03T16:45:23.185Z,27.90
2022-08-03T16:48:04.887Z,28.29
2022-08-03T16:50:36.351Z,28.77
2022-08-03T16:53:09.509Z,29.19
2022-08-03T16:55:43.382Z,29.60
2022-08-03T16:58:24.455Z,30.02
2022-08-03T17:01:10.926Z,29.96
2022-08-03T17:04:03.581Z,30.38
2022-08-03T17:06:38.287Z,30.68
2022-08-03T17:09:18.063Z,30.94
2022-08-03T17:11:48.671Z,31.37
2022-08-03T17:14:21.769Z,31.79
2022-08-03T17:16:53.905Z,32.13
2022-08-03T17:19:24.561Z,32.49
2022-08-03T17:21:59.539Z,32.85
2022-08-03T17:24:34.629Z,33.29
2022-08-03T17:27:08.595Z,33.51
2022-08-03T17:29:44.920Z,33.77
2022-08-03T17:32:18.326Z,34.08
2022-08-03T17:34:49.716Z,34.32
2022-08-03T17:37:50.252Z,34.65
2022-08-03T17:40:12.067Z,34.76
2022-08-03T17:43:01.114Z,35.06
2022-08-03T17:45:52.508Z,35.35
2022-08-03T17:48:18.412Z,35.66
2022-08-03T17:50:52.151Z,35.85
2022-08-03T17:53:36.768Z,36.06
2022-08-03T17:56:44.557Z,36.23
2022-08-03T17:59:51.047Z,36.45
2022-08-03T18:02:48.410Z,36.69
2022-08-03T18:05:21.908Z,36.92
2022-08-03T18:07:59.376Z,36.93
2022-08-03T18:10:35.989Z,37.11
2022-08-03T18:13:15.536Z,37.15
2022-08-03T18:15:52.121Z,37.26
2022-08-03T18:18:32.607Z,37.41
2022-08-03T18:21:06.698Z,37.71
2022-08-03T18:23:39.159Z,37.91
2022-08-03T18:26:12.145Z,38.02
2022-08-03T18:28:40.908Z,38.16
2022-08-03T18:34:16.919Z,38.80
2022-08-03T18:36:49.374Z,39.09
2022-08-03T18:39:19.710Z,39.15
2022-08-03T18:41:48.019Z,39.46
2022-08-03T18:44:53.439Z,39.64
2022-08-03T18:47:16.766Z,39.72
2022-08-03T18:50:02.029Z,39.96
2022-08-03T18:52:39.685Z,40.06
2022-08-03T18:55:33.059Z,40.07
2022-08-03T18:58:05.975Z,40.26
2022-08-03T19:00:53.881Z,40.46
2022-08-03T19:03:25.038Z,40.60
2022-08-03T19:06:19.184Z,40.73
2022-08-03T19:09:07.300Z,40.88
2022-08-03T19:12:14.248Z,41.02
2022-08-03T19:14:43.291Z,41.09
2022-08-03T19:17:14.188Z,41.31
2022-08-03T19:19:52.474Z,41.36
2022-08-03T19:22:21.550Z,41.49
2022-08-03T19:24:53.064Z,41.45
2022-08-03T19:27:27.017Z,41.57
2022-08-03T19:30:02.048Z,41.60
2022-08-03T19:32:34.178Z,41.51
2022-08-03T19:35:05.052Z,41.63
2022-08-03T19:37:44.443Z,41.75
2022-08-03T19:40:12.811Z,41.74
2022-08-03T19:42:45.405Z,41.83
2022-08-03T19:45:21.613Z,41.86
2022-08-03T19:47:53.225Z,41.81
2022-08-03T19:50:21.548Z,41.88
2022-08-03T19:52:50.237Z,41.96
2022-08-03T19:55:18.697Z,42.10
2022-08-03T19:57:49.367Z,42.08
2022-08-03T20:00:26.420Z,42.02
2022-08-03T20:02:56.107Z,42.11
2022-08-03T20:05:25.034Z,42.15
2022-08-03T20:07:57.352Z,42.28
2022-08-03T20:10:27.014Z,42.44
2022-08-03T20:12:55.297Z,42.48
2022-08-03T20:15:31.134Z,42.46
2022-08-03T20:18:16.811Z,42.53
2022-08-03T20:20:50.183Z,42.65
2022-08-03T20:23:20.344Z,42.57
2022-08-03T20:25:58.210Z,42.89
2022-08-03T20:28:50.347Z,42.78
2022-08-03T20:31:25.146Z,42.82
2022-08-03T20:34:01.230Z,42.82
2022-08-03T20:36:29.580Z,42.99
2022-08-03T20:38:59.658Z,42.94
2022-08-03T20:41:28.214Z,43.03
2022-08-03T20:44:00.983Z,43.05
2022-08-03T20:46:41.440Z,43.05
2022-08-03T20:49:22.939Z,43.26
2022-08-03T20:54:41.394Z,43.34
2022-08-03T20:57:10.183Z,43.49
2022-08-03T20:59:50.730Z,43.43
2022-08-03T21:02:29.864Z,43.54
2022-08-03T21:05:08.611Z,43.52
2022-08-03T21:08:05.660Z,43.72
2022-08-03T21:10:33.531Z,44.02
2022-08-03T21:12:58.149Z,38.63
2022-08-03T21:13:12.284Z,43.20
2022-08-03T21:13:23.689Z,43.99
2022-08-03T21:16:11.786Z,43.96
2022-08-03T21:18:45.979Z,44.27
2022-08-03T21:21:15.784Z,44.37
2022-08-03T21:23:47.981Z,44.44
2022-08-03T21:26:18.693Z,44.38
2022-08-03T21:28:49.469Z,44.78
2022-08-03T21:31:19.894Z,44.53
2022-08-03T21:33:56.677Z,44.57
2022-08-03T21:36:27.977Z,44.85
2022-08-03T21:38:57.575Z,44.72
2022-08-03T21:41:28.777Z,44.74
2022-08-03T21:43:57.382Z,44.83
2022-08-03T21:46:29.727Z,44.88
2022-08-03T21:50:06.894Z,44.92
2022-08-03T21:51:50.640Z,45.13
2022-08-03T21:54:20.993Z,45.18
2022-08-03T21:56:51.128Z,45.15
2022-08-03T21:59:21.861Z,45.24
2022-08-03T22:01:55.281Z,45.24
2022-08-03T22:04:53.377Z,45.33
2022-08-03T22:07:15.818Z,45.57
2022-08-03T22:09:51.272Z,45.65
2022-08-03T22:12:24.925Z,45.54
2022-08-03T22:15:01.118Z,45.55
2022-08-03T22:17:55.332Z,45.66
2022-08-03T22:20:23.229Z,45.98
2022-08-03T22:22:56.011Z,46.14
2022-08-03T22:25:29.642Z,46.06
2022-08-03T22:28:04.278Z,46.14
2022-08-03T22:30:33.397Z,46.31
2022-08-03T22:33:05.514Z,46.35
2022-08-03T22:35:44.224Z,46.48
2022-08-03T22:38:19.480Z,46.21
2022-08-03T22:40:52.416Z,46.34
2022-08-03T22:43:25.202Z,46.59
2022-08-03T22:46:10.338Z,46.83
2022-08-03T22:48:41.735Z,46.71
2022-08-03T22:51:10.948Z,46.88
2022-08-03T22:53:39.696Z,46.86
2022-08-03T22:56:09.131Z,46.94
2022-08-03T22:58:37.372Z,47.10
2022-08-03T23:01:10.315Z,46.83
2022-08-03T23:04:00.204Z,47.14
2022-08-03T23:06:43.348Z,47.15
2022-08-03T23:09:13.920Z,47.10
2022-08-03T23:11:46.039Z,47.25
2022-08-03T23:14:16.436Z,47.35
2022-08-03T23:16:46.468Z,47.35
2022-08-03T23:19:16.936Z,47.46
2022-08-03T23:22:02.351Z,47.51
2022-08-03T23:24:36.403Z,47.44
2022-08-03T23:27:05.888Z,47.53
2022-08-03T23:29:36.922Z,47.71
2022-08-03T23:32:06.135Z,47.69
2022-08-03T23:34:54.341Z,47.87
2022-08-03T23:37:25.009Z,47.79
2022-08-03T23:39:54.986Z,48.07
2022-08-03T23:42:23.813Z,48.04
2022-08-03T23:44:55.126Z,47.93
2022-08-03T23:47:23.886Z,48.28
2022-08-03T23:49:52.302Z,48.26
2022-08-03T23:52:35.071Z,48.12
2022-08-03T23:55:08.648Z,48.53
2022-08-03T23:57:59.743Z,48.58
